createdAt,value
2018-09-10T00:00:38.842Z,7.00
2018-09-10T00:03:07.056Z,4.30
2018-09-10T00:05:35.374Z,7.20
2018-09-10T00:08:03.626Z,4.90
2018-09-10T00:10:31.814Z,5.33
2018-09-10T00:13:00.025Z,4.80
2018-09-10T00:15:28.236Z,5.10
2018-09-10T00:17:56.419Z,3.73
2018-09-10T00:20:24.643Z,6.20
2018-09-10T00:22:52.835Z,5.00
2018-09-10T00:25:21.050Z,6.13
2018-09-10T00:27:49.227Z,6.47
2018-09-10T00:30:17.444Z,4.43
2018-09-10T00:32:45.650Z,7.90
2018-09-10T00:35:13.901Z,4.37
2018-09-10T00:37:42.100Z,5.00
2018-09-10T00:40:10.303Z,10.83
2018-09-10T00:42:38.504Z,5.50
2018-09-10T00:45:06.699Z,4.33
2018-09-10T00:47:34.911Z,7.90
2018-09-10T00:50:03.102Z,7.90
2018-09-10T00:52:31.319Z,28.00
2018-09-10T00:54:59.519Z,6.00
2018-09-10T00:57:27.740Z,6.40
2018-09-10T00:59:55.943Z,5.93
2018-09-10T01:02:24.133Z,5.83
2018-09-10T01:04:52.407Z,6.93
2018-09-10T01:07:20.615Z,7.97
2018-09-10T01:09:48.811Z,15.83
2018-09-10T01:12:17.059Z,8.67
2018-09-10T01:14:45.239Z,6.43
2018-09-10T01:17:13.419Z,9.20
2018-09-10T01:19:41.645Z,9.00
2018-09-10T01:22:09.867Z,6.47
2018-09-10T01:24:38.092Z,6.53
2018-09-10T01:27:06.301Z,5.60
2018-09-10T01:29:34.531Z,9.77
2018-09-10T01:32:02.719Z,8.90
2018-09-10T01:34:36.328Z,7.53
2018-09-10T01:37:04.553Z,10.60
2018-09-10T01:39:32.767Z,21.17
2018-09-10T01:42:00.960Z,5.93
2018-09-10T01:44:29.190Z,7.40
2018-09-10T01:46:57.379Z,8.13
2018-09-10T01:49:25.563Z,14.43
2018-09-10T01:51:53.768Z,14.07
2018-09-10T01:54:22.012Z,15.87
2018-09-10T01:56:50.242Z,8.60
2018-09-10T01:59:18.435Z,11.63
2018-09-10T02:01:48.295Z,12.10
2018-09-10T02:04:16.583Z,10.83
2018-09-10T02:06:44.810Z,11.30
2018-09-10T02:09:12.990Z,27.47
2018-09-10T02:11:41.194Z,16.70
2018-09-10T02:14:09.381Z,12.33
2018-09-10T02:16:37.596Z,12.10
2018-09-10T02:19:06.019Z,12.73
2018-09-10T02:21:34.218Z,14.90
2018-09-10T02:24:03.420Z,11.80
2018-09-10T02:26:32.236Z,19.13
2018-09-10T02:29:01.345Z,12.30
2018-09-10T02:31:30.414Z,15.13
2018-09-10T02:33:59.771Z,12.13
2018-09-10T02:36:27.984Z,15.53
2018-09-10T02:38:56.211Z,14.73
2018-09-10T02:41:24.414Z,11.67
2018-09-10T02:43:52.634Z,10.93
2018-09-10T02:46:20.855Z,14.50
2018-09-10T02:48:49.075Z,18.20
2018-09-10T02:51:17.320Z,12.70
2018-09-10T02:53:45.519Z,22.13
2018-09-10T02:56:13.739Z,13.03
2018-09-10T02:58:41.935Z,14.60
2018-09-10T03:01:10.247Z,18.50
2018-09-10T03:03:38.527Z,14.63
2018-09-10T03:06:06.807Z,22.63
2018-09-10T03:08:35.057Z,15.33
2018-09-10T03:11:03.250Z,23.10
2018-09-10T03:13:31.475Z,16.70
2018-09-10T03:15:59.756Z,20.23
2018-09-10T03:18:28.013Z,17.27
2018-09-10T03:20:56.238Z,16.70
2018-09-10T03:23:24.443Z,16.33
2018-09-10T03:25:52.647Z,22.43
2018-09-10T03:28:20.872Z,14.70
2018-09-10T03:30:49.112Z,17.60
2018-09-10T03:33:17.451Z,22.30
2018-09-10T03:35:45.699Z,21.60
2018-09-10T03:38:13.953Z,22.80
2018-09-10T03:40:42.168Z,23.83
2018-09-10T03:43:10.419Z,17.30
2018-09-10T03:45:38.661Z,21.30
2018-09-10T03:48:06.991Z,26.50
2018-09-10T03:50:35.243Z,31.07
2018-09-10T03:53:03.456Z,18.07
2018-09-10T03:55:31.787Z,21.23
2018-09-10T03:58:00.043Z,23.40
2018-09-10T04:00:28.336Z,22.93
2018-09-10T04:02:56.620Z,23.53
2018-09-10T04:05:24.919Z,20.77
2018-09-10T04:07:53.171Z,19.40
2018-09-10T04:10:21.420Z,26.37
2018-09-10T04:12:49.655Z,21.67
2018-09-10T04:15:17.894Z,21.27
2018-09-10T04:17:46.143Z,21.27
2018-09-10T04:20:14.388Z,18.60
2018-09-10T04:22:42.970Z,22.93
2018-09-10T04:25:11.307Z,21.37
2018-09-10T04:27:39.595Z,25.43
2018-09-10T04:30:15.600Z,24.37
2018-09-10T04:32:43.917Z,29.70
2018-09-10T04:35:12.584Z,33.27
2018-09-10T04:37:41.227Z,21.47
2018-09-10T04:40:09.458Z,21.10
2018-09-10T04:42:37.710Z,26.57
2018-09-10T04:45:06.230Z,24.03
2018-09-10T04:47:34.461Z,23.87
2018-09-10T04:50:03.058Z,43.43
2018-09-10T04:52:31.299Z,20.13
2018-09-10T04:54:59.564Z,26.53
2018-09-10T04:57:27.818Z,25.83
2018-09-10T04:59:56.067Z,29.60
2018-09-10T05:02:24.291Z,26.33
2018-09-10T05:04:52.646Z,26.80
2018-09-10T05:07:20.907Z,23.93
2018-09-10T05:09:49.210Z,26.67
2018-09-10T05:12:17.428Z,28.20
2018-09-10T05:14:45.828Z,32.40
2018-09-10T05:17:14.100Z,22.40
2018-09-10T05:19:42.332Z,30.83
2018-09-10T05:22:10.596Z,28.97
2018-09-10T05:24:38.812Z,24.47
2018-09-10T05:27:07.108Z,30.97
2018-09-10T05:29:35.299Z,32.93
2018-09-10T05:32:03.591Z,29.07
2018-09-10T05:34:31.819Z,35.87
2018-09-10T05:37:00.104Z,35.67
2018-09-10T05:39:28.322Z,22.17
2018-09-10T05:41:56.568Z,23.70
2018-09-10T05:44:25.000Z,29.33
2018-09-10T05:46:53.867Z,29.60
2018-09-10T05:49:22.233Z,32.13
2018-09-10T05:51:50.548Z,30.60
2018-09-10T05:54:18.828Z,29.13
2018-09-10T05:56:47.181Z,35.40
2018-09-10T05:59:15.442Z,30.00
2018-09-10T06:01:43.683Z,44.07
2018-09-10T06:04:11.903Z,39.27
2018-09-10T06:06:40.136Z,32.50
2018-09-10T06:09:08.431Z,35.60
2018-09-10T06:11:36.891Z,36.57
2018-09-10T06:14:05.366Z,38.40
2018-09-10T06:16:33.631Z,35.70
2018-09-10T06:19:02.210Z,37.07
2018-09-10T06:21:30.775Z,26.80
2018-09-10T06:24:00.535Z,36.23
2018-09-10T06:26:28.836Z,31.27
2018-09-10T06:28:57.142Z,43.87
2018-09-10T06:31:25.708Z,28.93
2018-09-10T06:33:55.085Z,44.00
2018-09-10T06:36:23.477Z,30.47
2018-09-10T06:38:51.744Z,26.90
2018-09-10T06:41:20.011Z,38.63
2018-09-10T06:43:48.349Z,28.30
2018-09-10T06:46:16.581Z,35.50
2018-09-10T06:48:44.831Z,34.73
2018-09-10T06:51:13.056Z,35.73
2018-09-10T06:53:41.308Z,51.77
2018-09-10T06:56:09.563Z,34.60
2018-09-10T06:58:37.815Z,40.77
2018-09-10T07:01:06.152Z,35.20
2018-09-10T07:03:34.444Z,34.40
2018-09-10T07:06:02.672Z,40.97
2018-09-10T07:08:30.876Z,41.90
2018-09-10T07:10:59.150Z,31.27
2018-09-10T07:13:27.435Z,30.43
2018-09-10T07:15:55.671Z,41.70
2018-09-10T07:18:23.967Z,37.03
2018-09-10T07:20:52.464Z,37.70
2018-09-10T07:23:20.786Z,31.77
2018-09-10T07:25:49.042Z,31.50
2018-09-10T07:28:17.257Z,36.63
2018-09-10T07:30:45.505Z,29.23
2018-09-10T07:33:13.743Z,35.17
2018-09-10T07:35:42.474Z,36.53
2018-09-10T07:38:10.729Z,25.40
2018-09-10T07:40:38.991Z,24.60
2018-09-10T07:43:07.232Z,43.03
2018-09-10T07:45:35.507Z,29.23
2018-09-10T07:48:03.759Z,31.60
2018-09-10T07:50:32.022Z,35.43
2018-09-10T07:53:00.280Z,32.57
2018-09-10T07:55:28.552Z,37.73
2018-09-10T08:19:33.108Z,42.80
2018-09-10T08:22:01.342Z,40.57
2018-09-10T08:24:29.709Z,42.80
2018-09-10T08:26:57.887Z,39.83
2018-09-10T08:29:26.111Z,48.37
2018-09-10T08:31:54.345Z,36.97
2018-09-10T08:34:22.577Z,34.10
2018-09-10T08:36:50.922Z,27.87
2018-09-10T08:39:19.146Z,24.73
2018-09-10T08:41:47.426Z,46.53
2018-09-10T08:44:15.701Z,33.90
2018-09-10T08:46:44.600Z,22.30
2018-09-10T08:49:12.826Z,35.57
2018-09-10T08:51:41.091Z,27.47
2018-09-10T08:54:09.462Z,23.50
2018-09-10T08:56:37.611Z,27.67
2018-09-10T08:59:05.899Z,22.03
2018-09-10T09:01:34.133Z,31.80
2018-09-10T09:04:02.401Z,26.97
2018-09-10T09:06:30.773Z,27.97
2018-09-10T09:08:59.095Z,36.27
2018-09-10T09:11:27.363Z,23.07
2018-09-10T09:13:55.647Z,35.17
2018-09-10T09:16:23.916Z,29.00
2018-09-10T09:18:52.166Z,23.10
2018-09-10T09:21:20.410Z,32.20
2018-09-10T09:23:48.730Z,27.07
2018-09-10T09:26:16.978Z,14.53
2018-09-10T09:28:45.231Z,27.70
2018-09-10T09:31:13.475Z,19.10
2018-09-10T09:33:41.706Z,16.73
2018-09-10T09:36:15.338Z,22.37
2018-09-10T09:38:48.867Z,9.50
2018-09-10T09:41:22.412Z,11.23
2018-09-10T09:43:56.119Z,14.40
2018-09-10T09:46:24.362Z,12.97
2018-09-10T09:48:52.711Z,13.37
2018-09-10T09:51:20.987Z,13.90
2018-09-10T09:53:49.305Z,12.10
2018-09-10T09:56:17.568Z,10.27
2018-09-10T09:58:45.776Z,9.93
2018-09-10T10:01:19.299Z,9.63
2018-09-10T10:03:53.013Z,5.03
2018-09-10T10:06:21.511Z,8.03
2018-09-10T10:08:49.791Z,10.00
2018-09-10T10:11:18.168Z,3.53
2018-09-10T10:13:46.355Z,7.73
2018-09-10T10:16:14.685Z,11.43
2018-09-10T10:18:42.886Z,5.80
2018-09-10T10:21:11.133Z,8.83
2018-09-10T10:23:39.397Z,10.70
2018-09-10T10:26:07.654Z,8.20
2018-09-10T10:28:36.012Z,3.77
2018-09-10T10:31:04.230Z,5.37
2018-09-10T10:33:32.479Z,12.53
2018-09-10T10:36:00.756Z,4.30
2018-09-10T10:38:28.971Z,8.40
2018-09-10T10:40:57.215Z,4.53
2018-09-10T10:43:25.542Z,6.13
2018-09-10T10:45:53.815Z,13.90
2018-09-10T10:48:22.084Z,6.37
2018-09-10T10:50:50.299Z,4.17
2018-09-10T10:53:18.604Z,3.47
2018-09-10T10:55:46.846Z,5.97
2018-09-10T10:58:15.118Z,4.80
2018-09-10T11:00:43.392Z,7.57
2018-09-10T11:03:11.661Z,6.03
2018-09-10T11:05:39.904Z,3.93
2018-09-10T11:08:08.132Z,3.97
2018-09-10T11:10:36.475Z,24.83
2018-09-10T11:13:04.711Z,6.57
2018-09-10T11:15:32.987Z,11.50
2018-09-10T11:18:01.183Z,6.27
2018-09-10T11:20:46.617Z,6.10
2018-09-10T11:23:14.923Z,3.20
2018-09-10T11:25:43.207Z,3.00
2018-09-10T11:28:11.460Z,9.10
2018-09-10T11:30:40.064Z,2.97
2018-09-10T11:33:08.338Z,6.93
2018-09-10T11:35:36.636Z,8.37
2018-09-10T11:38:04.870Z,10.67
2018-09-10T11:40:33.084Z,6.23
2018-09-10T11:43:01.320Z,6.63
2018-09-10T11:45:29.568Z,7.30
2018-09-10T11:47:57.831Z,4.80
2018-09-10T11:50:26.095Z,8.17
2018-09-10T11:52:54.343Z,9.80
2018-09-10T11:55:22.598Z,11.03
2018-09-10T11:57:50.889Z,7.63
2018-09-10T12:00:19.195Z,5.47
2018-09-10T12:02:47.495Z,4.73
2018-09-10T12:05:15.735Z,4.50
2018-09-10T12:07:43.993Z,9.37
2018-09-10T12:10:12.205Z,3.80
2018-09-10T12:12:40.443Z,4.83
2018-09-10T12:15:08.676Z,3.67
2018-09-10T12:17:36.902Z,8.70
2018-09-10T12:20:05.279Z,5.17
2018-09-10T12:22:33.575Z,7.03
2018-09-10T12:25:01.812Z,7.40
2018-09-10T12:27:30.059Z,5.20
2018-09-10T12:29:58.371Z,7.47
2018-09-10T12:32:26.929Z,9.23
2018-09-10T12:34:55.262Z,16.63
2018-09-10T12:37:23.463Z,5.00
2018-09-10T12:39:51.698Z,6.40
2018-09-10T12:42:19.970Z,7.93
2018-09-10T12:44:48.156Z,7.73
2018-09-10T12:47:16.382Z,4.40
2018-09-10T12:49:44.706Z,6.03
2018-09-10T12:52:13.385Z,5.67
2018-09-10T12:54:42.642Z,12.57
2018-09-10T12:57:11.082Z,5.90
2018-09-10T12:59:39.310Z,8.93
2018-09-10T13:02:07.538Z,4.40
2018-09-10T13:04:35.811Z,4.33
2018-09-10T13:07:04.010Z,7.40
2018-09-10T13:09:32.214Z,4.13
2018-09-10T13:12:00.578Z,3.80
2018-09-10T13:14:28.788Z,7.47
2018-09-10T13:16:58.776Z,3.63
2018-09-10T13:19:27.048Z,5.83
2018-09-10T13:21:55.265Z,1.70
2018-09-10T13:24:23.474Z,4.47
2018-09-10T13:26:51.673Z,8.33
2018-09-10T13:29:20.307Z,6.33
2018-09-10T13:31:49.476Z,5.93
2018-09-10T13:34:17.890Z,6.63
2018-09-10T13:36:46.093Z,2.23
2018-09-10T13:39:14.270Z,6.83
2018-09-10T13:41:42.484Z,3.60
2018-09-10T13:44:10.692Z,5.43
2018-09-10T13:46:38.893Z,4.43
2018-09-10T13:49:07.114Z,3.30
2018-09-10T13:51:35.298Z,7.30
2018-09-10T13:54:03.544Z,7.83
2018-09-10T13:56:31.763Z,8.90
2018-09-10T13:58:59.972Z,5.87
2018-09-10T14:01:28.367Z,10.10
2018-09-10T14:03:56.728Z,2.60
2018-09-10T14:06:24.965Z,5.47
2018-09-10T14:08:53.206Z,13.47
2018-09-10T14:11:21.434Z,8.33
2018-09-10T14:13:49.644Z,4.87
2018-09-10T14:16:17.879Z,7.20
2018-09-10T14:18:46.084Z,11.53
2018-09-10T14:21:14.314Z,9.53
2018-09-10T14:23:42.546Z,4.47
2018-09-10T14:26:10.772Z,7.83
2018-09-10T14:28:39.039Z,4.77
2018-09-10T14:31:07.255Z,5.03
2018-09-10T14:33:35.655Z,7.07
2018-09-10T14:36:03.886Z,6.73
2018-09-10T14:38:32.127Z,9.23
2018-09-10T14:41:00.361Z,7.50
2018-09-10T14:43:28.608Z,6.00
2018-09-10T14:45:56.812Z,5.27
2018-09-10T14:48:25.031Z,5.60
2018-09-10T14:50:53.268Z,13.83
2018-09-10T14:53:21.471Z,13.87
2018-09-10T14:55:49.706Z,9.57
2018-09-10T14:58:18.248Z,9.60
2018-09-10T15:00:46.408Z,7.53
2018-09-10T15:03:14.651Z,4.50
2018-09-10T15:05:42.855Z,2.07
2018-09-10T15:08:11.075Z,7.20
2018-09-10T15:10:39.283Z,2.47
2018-09-10T15:13:07.529Z,8.80
2018-09-10T15:15:35.798Z,12.37
2018-09-10T15:18:04.105Z,5.37
2018-09-10T15:20:32.332Z,8.10
2018-09-10T15:25:35.391Z,5.03
2018-09-10T15:28:03.607Z,3.00
2018-09-10T15:30:31.875Z,3.97
2018-09-10T15:33:00.109Z,6.33
2018-09-10T15:35:28.331Z,9.23
2018-09-10T15:37:56.969Z,3.73
2018-09-10T15:40:25.198Z,7.07
2018-09-10T15:42:53.407Z,11.00
2018-09-10T15:45:21.727Z,5.10
2018-09-10T15:47:49.917Z,6.53
2018-09-10T15:50:18.119Z,5.43
2018-09-10T15:52:46.334Z,4.27
2018-09-10T15:55:14.764Z,13.20
2018-09-10T15:57:42.995Z,4.53
2018-09-10T16:00:11.303Z,5.93
2018-09-10T16:02:39.422Z,4.70
2018-09-10T16:05:07.706Z,3.67
2018-09-10T16:07:35.990Z,4.73
2018-09-10T16:10:04.248Z,4.10
2018-09-10T16:12:32.499Z,4.47
2018-09-10T16:15:00.735Z,4.40
2018-09-10T16:17:28.968Z,4.37
2018-09-10T16:19:57.299Z,7.17
2018-09-10T16:22:25.665Z,6.27
2018-09-10T16:24:54.070Z,3.93
2018-09-10T16:27:22.331Z,9.70
2018-09-10T16:29:50.559Z,4.90
2018-09-10T16:32:18.772Z,6.73
2018-09-10T16:34:46.981Z,6.13
2018-09-10T16:37:15.221Z,3.30
2018-09-10T16:39:43.465Z,5.73
2018-09-10T16:42:11.777Z,3.47
2018-09-10T16:44:40.003Z,6.80
2018-09-10T16:47:08.316Z,2.50
2018-09-10T16:49:36.498Z,5.43
2018-09-10T16:52:04.782Z,4.03
2018-09-10T16:54:33.206Z,7.60
2018-09-10T16:57:01.419Z,6.73
2018-09-10T16:59:29.687Z,5.93
2018-09-10T17:01:57.919Z,5.10
2018-09-10T17:04:26.192Z,3.10
2018-09-10T17:06:54.777Z,8.03
2018-09-10T17:09:23.142Z,6.87
2018-09-10T17:11:52.181Z,9.47
2018-09-10T17:14:20.845Z,9.60
2018-09-10T17:16:49.063Z,6.13
2018-09-10T17:19:17.297Z,5.10
2018-09-10T17:21:46.509Z,22.00
2018-09-10T17:24:14.998Z,7.17
2018-09-10T17:26:43.206Z,10.53
2018-09-10T17:29:11.427Z,10.67
2018-09-10T17:31:39.660Z,7.27
2018-09-10T17:34:07.943Z,7.93
2018-09-10T17:36:36.189Z,6.80
2018-09-10T17:39:06.860Z,8.60
2018-09-10T17:41:35.104Z,6.93
2018-09-10T17:44:03.330Z,10.20
2018-09-10T17:46:31.532Z,9.53
2018-09-10T17:48:59.784Z,12.20
2018-09-10T17:51:28.048Z,15.70
2018-09-10T17:53:56.365Z,11.23
2018-09-10T17:56:24.580Z,6.70
2018-09-10T17:58:52.840Z,8.20
2018-09-10T18:01:21.069Z,11.30
2018-09-10T18:03:49.443Z,12.70
2018-09-10T18:06:17.691Z,8.70
2018-09-10T18:08:45.926Z,7.37
2018-09-10T18:11:14.197Z,7.03
2018-09-10T18:13:42.424Z,12.37
2018-09-10T18:18:45.700Z,7.03
2018-09-10T18:21:14.396Z,5.73
2018-09-10T18:23:43.064Z,7.83
2018-09-10T18:26:11.874Z,9.63
2018-09-10T18:28:40.599Z,6.43
2018-09-10T18:31:09.188Z,6.07
2018-09-10T18:33:37.677Z,7.70
2018-09-10T18:36:05.995Z,15.43
2018-09-10T18:38:34.214Z,13.77
2018-09-10T18:41:03.162Z,7.60
2018-09-10T18:43:31.398Z,12.57
2018-09-10T18:46:01.508Z,12.20
2018-09-10T18:48:29.747Z,6.53
2018-09-10T18:50:58.002Z,10.13
2018-09-10T18:53:26.274Z,9.53
2018-09-10T18:55:54.830Z,7.27
2018-09-10T18:58:23.251Z,6.93
2018-09-10T19:00:51.541Z,9.90
2018-09-10T19:03:20.185Z,10.17
2018-09-10T19:05:48.415Z,9.83
2018-09-10T19:08:16.628Z,13.67
2018-09-10T19:10:44.875Z,10.43
2018-09-10T19:13:13.107Z,10.87
2018-09-10T19:15:41.315Z,12.90
2018-09-10T19:18:10.557Z,22.33
2018-09-10T19:20:38.806Z,15.47
2018-09-10T19:23:07.243Z,12.60
2018-09-10T19:25:35.516Z,10.37
2018-09-10T19:28:03.923Z,7.73
2018-09-10T19:30:32.235Z,15.97
2018-09-10T19:33:00.366Z,12.97
2018-09-10T19:35:28.570Z,9.03
2018-09-10T19:37:56.831Z,9.93
2018-09-10T19:40:25.526Z,10.50
2018-09-10T19:42:54.645Z,18.37
2018-09-10T19:45:22.970Z,11.80
2018-09-10T19:47:51.845Z,5.20
2018-09-10T19:50:20.636Z,20.17
2018-09-10T19:52:49.514Z,6.17
2018-09-10T19:55:17.797Z,7.07
2018-09-10T20:00:20.614Z,9.63
2018-09-10T20:02:48.831Z,6.93
2018-09-10T20:05:17.072Z,5.17
2018-09-10T20:07:45.337Z,13.30
2018-09-10T20:10:13.575Z,9.00
2018-09-10T20:12:41.847Z,7.33
2018-09-10T20:15:10.409Z,16.53
2018-09-10T20:17:38.619Z,22.63
2018-09-10T20:20:07.412Z,12.70
2018-09-10T20:22:35.658Z,11.03
2018-09-10T20:25:04.063Z,17.20
2018-09-10T20:27:32.440Z,14.83
2018-09-10T20:30:00.671Z,12.00
2018-09-10T20:32:28.907Z,29.03
2018-09-10T20:34:57.136Z,16.23
2018-09-10T20:37:25.561Z,6.40
2018-09-10T20:39:53.778Z,7.00
2018-09-10T20:42:22.014Z,8.13
2018-09-10T20:44:50.348Z,12.07
2018-09-10T20:47:18.575Z,14.23
2018-09-10T20:49:46.831Z,10.17
2018-09-10T20:52:15.169Z,8.20
2018-09-10T20:54:46.248Z,7.70
2018-09-10T20:57:14.464Z,15.50
2018-09-10T20:59:42.727Z,19.60
2018-09-10T21:02:10.923Z,14.60
2018-09-10T21:04:39.156Z,17.20
2018-09-10T21:07:07.367Z,16.13
2018-09-10T21:09:35.583Z,8.80
2018-09-10T21:12:03.995Z,14.60
2018-09-10T21:14:32.317Z,10.33
2018-09-10T21:17:00.532Z,18.13
2018-09-10T21:19:28.765Z,21.63
2018-09-10T21:21:56.951Z,17.60
2018-09-10T21:24:25.208Z,12.30
2018-09-10T21:26:53.444Z,12.67
2018-09-10T21:29:21.690Z,12.37
2018-09-10T21:31:49.936Z,9.90
2018-09-10T21:34:18.172Z,3.73
2018-09-10T21:36:46.401Z,11.83
2018-09-10T21:39:15.282Z,12.10
2018-09-10T21:41:43.491Z,15.13
2018-09-10T21:44:11.885Z,13.07
2018-09-10T21:46:40.116Z,13.13
2018-09-10T21:49:08.635Z,9.60
2018-09-10T21:51:37.465Z,14.00
2018-09-10T21:54:06.228Z,18.77
2018-09-10T21:56:34.827Z,19.63
2018-09-10T21:59:03.217Z,12.37
2018-09-10T22:01:31.623Z,13.80
2018-09-10T22:03:59.819Z,14.57
2018-09-10T22:06:28.045Z,14.87
2018-09-10T22:08:56.291Z,15.33
2018-09-10T22:11:24.619Z,14.10
2018-09-10T22:13:53.031Z,23.70
2018-09-10T22:16:21.271Z,25.30
2018-09-10T22:18:49.516Z,7.43
2018-09-10T22:21:17.738Z,19.50
2018-09-10T22:23:46.021Z,13.50
2018-09-10T22:26:14.428Z,11.67
2018-09-10T22:28:42.667Z,17.60
2018-09-10T22:31:10.888Z,20.93
2018-09-10T22:33:39.151Z,10.47
2018-09-10T22:36:07.381Z,16.37
2018-09-10T22:38:35.635Z,18.23
2018-09-10T22:41:03.869Z,17.20
2018-09-10T22:43:32.176Z,13.57
2018-09-10T22:46:00.410Z,18.90
2018-09-10T22:48:28.616Z,19.20
2018-09-10T22:50:56.843Z,16.53
2018-09-10T22:53:25.063Z,17.43
2018-09-10T22:55:53.343Z,16.83
2018-09-10T22:58:21.568Z,25.67
2018-09-10T23:00:49.803Z,19.23
2018-09-10T23:03:18.027Z,13.60
2018-09-10T23:05:46.259Z,22.20
2018-09-10T23:08:14.504Z,16.00
2018-09-10T23:10:42.763Z,20.03
2018-09-10T23:13:11.001Z,9.37
2018-09-10T23:15:39.207Z,15.73
2018-09-10T23:18:07.465Z,8.83
2018-09-10T23:20:35.675Z,15.07
2018-09-10T23:23:03.883Z,15.10
2018-09-10T23:25:32.125Z,17.17
2018-09-10T23:28:00.325Z,18.37
2018-09-10T23:30:28.570Z,9.97
2018-09-10T23:32:56.807Z,17.90
2018-09-10T23:35:25.148Z,19.37
2018-09-10T23:37:53.479Z,21.30
2018-09-10T23:40:21.955Z,11.10
2018-09-10T23:42:50.183Z,18.90
2018-09-10T23:45:18.408Z,10.90
2018-09-10T23:47:46.672Z,12.37
2018-09-10T23:50:14.871Z,9.10
2018-09-10T23:52:43.085Z,18.07
2018-09-10T23:55:11.326Z,19.27
2018-09-10T23:57:39.540Z,11.50
